sensor_id;sensor_type;location;lat;lon;timestamp;P1;durP1;ratioP1;P2;durP2;ratioP2
72115;SDS011;59991;52.140;5.428;2023-07-31T00:00:01;1.45;;;1.17;;
72115;SDS011;59991;52.140;5.428;2023-07-31T00:00:33;1.95;;;1.02;;
72115;SDS011;59991;52.140;5.428;2023-07-31T00:01:05;1.15;;;1.00;;
72115;SDS011;59991;52.140;5.428;2023-07-31T00:01:36;2.22;;;1.48;;
72115;SDS011;59991;52.140;5.428;2023-07-31T00:02:08;1.38;;;0.75;;
72115;SDS011;59991;52.140;5.428;2023-07-31T00:02:39;2.17;;;1.40;;
72115;SDS011;59991;52.140;5.428;2023-07-31T00:03:11;1.90;;;1.33;;
72115;SDS011;59991;52.140;5.428;2023-07-31T00:03:42;1.60;;;1.38;;
72115;SDS011;59991;52.140;5.428;2023-07-31T00:04:14;1.40;;;1.17;;
72115;SDS011;59991;52.140;5.428;2023-07-31T00:04:45;1.48;;;1.00;;
72115;SDS011;59991;52.140;5.428;2023-07-31T00:05:17;1.55;;;0.95;;
72115;SDS011;59991;52.140;5.428;2023-07-31T00:05:49;3.65;;;1.45;;
72115;SDS011;59991;52.140;5.428;2023-07-31T00:06:20;1.60;;;1.30;;
72115;SDS011;59991;52.140;5.428;2023-07-31T00:06:52;1.70;;;0.93;;
72115;SDS011;59991;52.140;5.428;2023-07-31T00:07:23;4.32;;;1.30;;
72115;SDS011;59991;52.140;5.428;2023-07-31T00:07:55;4.05;;;1.23;;
72115;SDS011;59991;52.140;5.428;2023-07-31T00:08:26;4.07;;;1.37;;
72115;SDS011;59991;52.140;5.428;2023-07-31T00:08:58;2.78;;;1.33;;
72115;SDS011;59991;52.140;5.428;2023-07-31T00:09:29;3.08;;;1.20;;
72115;SDS011;59991;52.140;5.428;2023-07-31T00:10:01;2.08;;;1.10;;
72115;SDS011;59991;52.140;5.428;2023-07-31T00:10:33;5.47;;;1.83;;
72115;SDS011;59991;52.140;5.428;2023-07-31T00:11:05;2.65;;;1.60;;
72115;SDS011;59991;52.140;5.428;2023-07-31T00:11:36;3.45;;;1.30;;
72115;SDS011;59991;52.140;5.428;2023-07-31T00:12:08;3.45;;;1.42;;
72115;SDS011;59991;52.140;5.428;2023-07-31T00:12:40;2.90;;;1.33;;
72115;SDS011;59991;52.140;5.428;2023-07-31T00:13:13;2.75;;;1.48;;
72115;SDS011;59991;52.140;5.428;2023-07-31T00:13:45;3.90;;;1.17;;
72115;SDS011;59991;52.140;5.428;2023-07-31T00:14:16;4.28;;;1.40;;
72115;SDS011;59991;52.140;5.428;2023-07-31T00:14:48;3.58;;;1.20;;
72115;SDS011;59991;52.140;5.428;2023-07-31T00:15:19;2.17;;;1.63;;
72115;SDS011;59991;52.140;5.428;2023-07-31T00:15:51;2.78;;;1.35;;
72115;SDS011;59991;52.140;5.428;2023-07-31T00:16:22;3.17;;;1.10;;
72115;SDS011;59991;52.140;5.428;2023-07-31T00:16:54;2.67;;;1.20;;
72115;SDS011;59991;52.140;5.428;2023-07-31T00:17:26;3.70;;;1.33;;
72115;SDS011;59991;52.140;5.428;2023-07-31T00:17:57;3.85;;;1.55;;
72115;SDS011;59991;52.140;5.428;2023-07-31T00:18:29;4.15;;;1.60;;
72115;SDS011;59991;52.140;5.428;2023-07-31T00:19:00;4.13;;;1.03;;
72115;SDS011;59991;52.140;5.428;2023-07-31T00:19:32;2.90;;;1.15;;
72115;SDS011;59991;52.140;5.428;2023-07-31T00:20:03;2.17;;;1.17;;
72115;SDS011;59991;52.140;5.428;2023-07-31T00:20:35;1.92;;;1.40;;
72115;SDS011;59991;52.140;5.428;2023-07-31T00:21:06;3.20;;;1.27;;
72115;SDS011;59991;52.140;5.428;2023-07-31T00:21:38;2.10;;;1.23;;
72115;SDS011;59991;52.140;5.428;2023-07-31T00:22:09;2.40;;;1.77;;
72115;SDS011;59991;52.140;5.428;2023-07-31T00:22:41;3.45;;;1.38;;
72115;SDS011;59991;52.140;5.428;2023-07-31T00:23:12;3.30;;;1.20;;
72115;SDS011;59991;52.140;5.428;2023-07-31T00:23:44;2.53;;;1.27;;
72115;SDS011;59991;52.140;5.428;2023-07-31T00:24:15;1.67;;;1.23;;
72115;SDS011;59991;52.140;5.428;2023-07-31T00:24:47;3.33;;;1.40;;
72115;SDS011;59991;52.140;5.428;2023-07-31T00:25:18;2.20;;;0.98;;
72115;SDS011;59991;52.140;5.428;2023-07-31T00:25:50;3.00;;;1.52;;
72115;SDS011;59991;52.140;5.428;2023-07-31T00:26:21;2.38;;;1.20;;
72115;SDS011;59991;52.140;5.428;2023-07-31T00:26:53;4.07;;;1.30;;
72115;SDS011;59991;52.140;5.428;2023-07-31T00:27:24;1.73;;;1.17;;
72115;SDS011;59991;52.140;5.428;2023-07-31T00:27:56;3.15;;;1.33;;
72115;SDS011;59991;52.140;5.428;2023-07-31T00:28:28;2.88;;;1.05;;
72115;SDS011;59991;52.140;5.428;2023-07-31T00:29:00;2.65;;;0.95;;
72115;SDS011;59991;52.140;5.428;2023-07-31T00:29:31;1.63;;;1.50;;
72115;SDS011;59991;52.140;5.428;2023-07-31T00:30:03;2.00;;;1.40;;
72115;SDS011;59991;52.140;5.428;2023-07-31T00:30:35;2.83;;;1.40;;
72115;SDS011;59991;52.140;5.428;2023-07-31T00:31:07;2.55;;;1.38;;
72115;SDS011;59991;52.140;5.428;2023-07-31T00:31:38;6.18;;;1.45;;
72115;SDS011;59991;52.140;5.428;2023-07-31T00:32:10;2.40;;;1.88;;
72115;SDS011;59991;52.140;5.428;2023-07-31T00:32:59;2.20;;;1.50;;
72115;SDS011;59991;52.140;5.428;2023-07-31T00:33:31;2.47;;;1.35;;
72115;SDS011;59991;52.140;5.428;2023-07-31T00:34:03;1.33;;;1.23;;
72115;SDS011;59991;52.140;5.428;2023-07-31T00:34:34;2.50;;;1.13;;
72115;SDS011;59991;52.140;5.428;2023-07-31T00:35:06;2.03;;;1.50;;
72115;SDS011;59991;52.140;5.428;2023-07-31T00:35:37;3.22;;;1.50;;
72115;SDS011;59991;52.140;5.428;2023-07-31T00:36:09;1.88;;;1.60;;
72115;SDS011;59991;52.140;5.428;2023-07-31T00:36:40;3.85;;;1.83;;
72115;SDS011;59991;52.140;5.428;2023-07-31T00:37:12;4.00;;;1.67;;
72115;SDS011;59991;52.140;5.428;2023-07-31T00:37:43;2.67;;;1.80;;
72115;SDS011;59991;52.140;5.428;2023-07-31T00:38:15;3.13;;;1.83;;
72115;SDS011;59991;52.140;5.428;2023-07-31T00:38:46;3.00;;;1.95;;
72115;SDS011;59991;52.140;5.428;2023-07-31T00:39:18;4.15;;;2.33;;
72115;SDS011;59991;52.140;5.428;2023-07-31T00:39:50;3.88;;;2.05;;
72115;SDS011;59991;52.140;5.428;2023-07-31T00:40:21;7.03;;;3.10;;
72115;SDS011;59991;52.140;5.428;2023-07-31T00:40:53;3.38;;;2.63;;
72115;SDS011;59991;52.140;5.428;2023-07-31T00:41:24;4.50;;;2.42;;
72115;SDS011;59991;52.140;5.428;2023-07-31T00:42:46;3.50;;;1.90;;
72115;SDS011;59991;52.140;5.428;2023-07-31T00:43:17;7.43;;;2.45;;
72115;SDS011;59991;52.140;5.428;2023-07-31T00:43:50;4.43;;;2.40;;
72115;SDS011;59991;52.140;5.428;2023-07-31T00:44:21;4.53;;;3.22;;
72115;SDS011;59991;52.140;5.428;2023-07-31T00:44:53;5.63;;;2.90;;
72115;SDS011;59991;52.140;5.428;2023-07-31T00:45:24;11.10;;;3.00;;
72115;SDS011;59991;52.140;5.428;2023-07-31T00:45:58;5.00;;;2.00;;
72115;SDS011;59991;52.140;5.428;2023-07-31T00:46:29;5.03;;;2.40;;
72115;SDS011;59991;52.140;5.428;2023-07-31T00:47:01;5.53;;;2.65;;
72115;SDS011;59991;52.140;5.428;2023-07-31T00:47:33;6.72;;;3.17;;
72115;SDS011;59991;52.140;5.428;2023-07-31T00:48:04;8.38;;;3.63;;
72115;SDS011;59991;52.140;5.428;2023-07-31T00:48:37;7.80;;;3.28;;
72115;SDS011;59991;52.140;5.428;2023-07-31T00:49:10;16.70;;;4.07;;
72115;SDS011;59991;52.140;5.428;2023-07-31T00:49:43;6.88;;;3.65;;
72115;SDS011;59991;52.140;5.428;2023-07-31T00:50:15;12.55;;;4.85;;
72115;SDS011;59991;52.140;5.428;2023-07-31T00:50:47;11.55;;;3.72;;
72115;SDS011;59991;52.140;5.428;2023-07-31T00:51:19;12.70;;;2.97;;
72115;SDS011;59991;52.140;5.428;2023-07-31T00:51:51;8.05;;;3.25;;
72115;SDS011;59991;52.140;5.428;2023-07-31T00:52:23;7.40;;;3.42;;
72115;SDS011;59991;52.140;5.428;2023-07-31T00:52:54;13.73;;;3.92;;
72115;SDS011;59991;52.140;5.428;2023-07-31T00:53:26;12.48;;;4.22;;
72115;SDS011;59991;52.140;5.428;2023-07-31T00:53:59;11.98;;;4.00;;
72115;SDS011;59991;52.140;5.428;2023-07-31T00:54:31;10.00;;;3.42;;
72115;SDS011;59991;52.140;5.428;2023-07-31T00:55:03;12.48;;;4.57;;
72115;SDS011;59991;52.140;5.428;2023-07-31T00:55:35;14.40;;;4.05;;
72115;SDS011;59991;52.140;5.428;2023-07-31T00:56:06;13.20;;;4.18;;
72115;SDS011;59991;52.140;5.428;2023-07-31T00:56:39;17.33;;;3.93;;
72115;SDS011;59991;52.140;5.428;2023-07-31T00:57:12;16.52;;;4.95;;
72115;SDS011;59991;52.140;5.428;2023-07-31T00:57:43;11.43;;;5.10;;
72115;SDS011;59991;52.140;5.428;2023-07-31T00:58:16;12.80;;;4.20;;
72115;SDS011;59991;52.140;5.428;2023-07-31T00:58:48;13.35;;;4.70;;
72115;SDS011;59991;52.140;5.428;2023-07-31T00:59:19;12.00;;;4.05;;
72115;SDS011;59991;52.140;5.428;2023-07-31T00:59:51;14.77;;;4.85;;
72115;SDS011;59991;52.140;5.428;2023-07-31T01:00:23;14.13;;;5.20;;
72115;SDS011;59991;52.140;5.428;2023-07-31T01:00:54;12.32;;;4.80;;
72115;SDS011;59991;52.140;5.428;2023-07-31T01:01:26;14.85;;;4.93;;
72115;SDS011;59991;52.140;5.428;2023-07-31T01:01:57;16.90;;;5.00;;
72115;SDS011;59991;52.140;5.428;2023-07-31T01:02:29;18.52;;;5.55;;
72115;SDS011;59991;52.140;5.428;2023-07-31T01:03:01;25.30;;;6.13;;
72115;SDS011;59991;52.140;5.428;2023-07-31T01:03:33;19.50;;;5.72;;
72115;SDS011;59991;52.140;5.428;2023-07-31T01:04:04;20.58;;;5.25;;
72115;SDS011;59991;52.140;5.428;2023-07-31T01:04:36;18.52;;;5.30;;
72115;SDS011;59991;52.140;5.428;2023-07-31T01:05:07;23.63;;;5.63;;
72115;SDS011;59991;52.140;5.428;2023-07-31T01:05:43;20.60;;;5.95;;
72115;SDS011;59991;52.140;5.428;2023-07-31T01:06:34;22.08;;;6.60;;
72115;SDS011;59991;52.140;5.428;2023-07-31T01:08:05;22.53;;;6.13;;
72115;SDS011;59991;52.140;5.428;2023-07-31T01:08:54;17.13;;;6.00;;
72115;SDS011;59991;52.140;5.428;2023-07-31T01:09:47;15.65;;;5.22;;
72115;SDS011;59991;52.140;5.428;2023-07-31T01:10:30;20.15;;;5.72;;
72115;SDS011;59991;52.140;5.428;2023-07-31T01:11:14;19.23;;;5.28;;
72115;SDS011;59991;52.140;5.428;2023-07-31T01:11:52;20.33;;;6.30;;
72115;SDS011;59991;52.140;5.428;2023-07-31T01:12:24;23.98;;;6.22;;
72115;SDS011;59991;52.140;5.428;2023-07-31T01:12:59;20.35;;;6.10;;
72115;SDS011;59991;52.140;5.428;2023-07-31T01:13:31;18.15;;;5.90;;
72115;SDS011;59991;52.140;5.428;2023-07-31T01:14:03;20.92;;;6.47;;
72115;SDS011;59991;52.140;5.428;2023-07-31T01:14:34;20.03;;;6.87;;
72115;SDS011;59991;52.140;5.428;2023-07-31T01:15:07;21.52;;;5.65;;
72115;SDS011;59991;52.140;5.428;2023-07-31T01:15:43;21.27;;;6.63;;
72115;SDS011;59991;52.140;5.428;2023-07-31T01:16:14;19.63;;;5.97;;
72115;SDS011;59991;52.140;5.428;2023-07-31T01:16:46;26.70;;;6.85;;
72115;SDS011;59991;52.140;5.428;2023-07-31T01:17:17;21.27;;;6.35;;
72115;SDS011;59991;52.140;5.428;2023-07-31T01:17:49;25.00;;;6.53;;
72115;SDS011;59991;52.140;5.428;2023-07-31T01:18:21;25.85;;;7.32;;
72115;SDS011;59991;52.140;5.428;2023-07-31T01:18:52;18.90;;;6.38;;
72115;SDS011;59991;52.140;5.428;2023-07-31T01:19:24;22.83;;;6.97;;
72115;SDS011;59991;52.140;5.428;2023-07-31T01:20:02;19.17;;;6.37;;
72115;SDS011;59991;52.140;5.428;2023-07-31T01:20:36;18.40;;;5.85;;
72115;SDS011;59991;52.140;5.428;2023-07-31T01:22:16;14.05;;;4.80;;
72115;SDS011;59991;52.140;5.428;2023-07-31T01:25:15;8.32;;;3.13;;
72115;SDS011;59991;52.140;5.428;2023-07-31T01:26:11;8.15;;;2.83;;
72115;SDS011;59991;52.140;5.428;2023-07-31T01:26:45;9.32;;;3.72;;
72115;SDS011;59991;52.140;5.428;2023-07-31T01:27:23;7.93;;;4.05;;
72115;SDS011;59991;52.140;5.428;2023-07-31T01:28:02;7.03;;;3.30;;
72115;SDS011;59991;52.140;5.428;2023-07-31T01:29:24;7.38;;;2.90;;
72115;SDS011;59991;52.140;5.428;2023-07-31T01:30:05;4.60;;;2.97;;
72115;SDS011;59991;52.140;5.428;2023-07-31T01:30:46;12.25;;;3.10;;
72115;SDS011;59991;52.140;5.428;2023-07-31T01:31:20;7.82;;;2.85;;
72115;SDS011;59991;52.140;5.428;2023-07-31T01:31:54;8.70;;;3.72;;
72115;SDS011;59991;52.140;5.428;2023-07-31T01:32:28;9.90;;;3.85;;
72115;SDS011;59991;52.140;5.428;2023-07-31T01:33:00;8.13;;;3.53;;
72115;SDS011;59991;52.140;5.428;2023-07-31T01:33:37;6.05;;;3.47;;
72115;SDS011;59991;52.140;5.428;2023-07-31T01:34:09;9.73;;;3.53;;
72115;SDS011;59991;52.140;5.428;2023-07-31T01:34:41;8.27;;;3.03;;
72115;SDS011;59991;52.140;5.428;2023-07-31T01:35:13;6.50;;;2.55;;
72115;SDS011;59991;52.140;5.428;2023-07-31T01:35:45;6.03;;;2.88;;
72115;SDS011;59991;52.140;5.428;2023-07-31T01:36:19;6.28;;;3.03;;
72115;SDS011;59991;52.140;5.428;2023-07-31T01:36:51;9.80;;;3.63;;
72115;SDS011;59991;52.140;5.428;2023-07-31T01:37:27;5.38;;;2.67;;
72115;SDS011;59991;52.140;5.428;2023-07-31T01:38:00;5.88;;;3.47;;
72115;SDS011;59991;52.140;5.428;2023-07-31T01:38:31;6.18;;;3.45;;
72115;SDS011;59991;52.140;5.428;2023-07-31T01:39:03;9.00;;;3.47;;
72115;SDS011;59991;52.140;5.428;2023-07-31T01:39:35;9.07;;;3.43;;
72115;SDS011;59991;52.140;5.428;2023-07-31T01:40:06;8.85;;;3.38;;
72115;SDS011;59991;52.140;5.428;2023-07-31T01:40:41;5.05;;;2.65;;
72115;SDS011;59991;52.140;5.428;2023-07-31T01:41:13;6.25;;;2.67;;
72115;SDS011;59991;52.140;5.428;2023-07-31T01:41:44;4.88;;;3.00;;
72115;SDS011;59991;52.140;5.428;2023-07-31T01:42:16;5.65;;;2.70;;
72115;SDS011;59991;52.140;5.428;2023-07-31T01:42:47;6.88;;;3.42;;
72115;SDS011;59991;52.140;5.428;2023-07-31T01:43:19;7.45;;;3.35;;
72115;SDS011;59991;52.140;5.428;2023-07-31T01:43:51;7.55;;;2.95;;
72115;SDS011;59991;52.140;5.428;2023-07-31T01:44:23;7.05;;;2.83;;
72115;SDS011;59991;52.140;5.428;2023-07-31T01:44:54;9.03;;;2.80;;
72115;SDS011;59991;52.140;5.428;2023-07-31T01:45:26;6.40;;;2.90;;
72115;SDS011;59991;52.140;5.428;2023-07-31T01:45:57;5.53;;;2.67;;
72115;SDS011;59991;52.140;5.428;2023-07-31T01:46:29;6.82;;;3.05;;
72115;SDS011;59991;52.140;5.428;2023-07-31T01:47:01;5.53;;;3.20;;
72115;SDS011;59991;52.140;5.428;2023-07-31T01:47:32;5.72;;;3.22;;
72115;SDS011;59991;52.140;5.428;2023-07-31T01:48:04;5.70;;;2.58;;
72115;SDS011;59991;52.140;5.428;2023-07-31T01:48:35;6.57;;;3.30;;
72115;SDS011;59991;52.140;5.428;2023-07-31T01:49:08;6.72;;;2.58;;
72115;SDS011;59991;52.140;5.428;2023-07-31T01:49:39;5.35;;;3.08;;
72115;SDS011;59991;52.140;5.428;2023-07-31T01:50:11;5.20;;;2.43;;
72115;SDS011;59991;52.140;5.428;2023-07-31T01:50:42;5.22;;;2.75;;
72115;SDS011;59991;52.140;5.428;2023-07-31T01:51:14;5.97;;;3.40;;
72115;SDS011;59991;52.140;5.428;2023-07-31T01:51:45;3.83;;;2.63;;
72115;SDS011;59991;52.140;5.428;2023-07-31T01:52:17;5.13;;;2.90;;
72115;SDS011;59991;52.140;5.428;2023-07-31T01:52:48;5.25;;;2.58;;
72115;SDS011;59991;52.140;5.428;2023-07-31T01:53:20;8.77;;;3.20;;
72115;SDS011;59991;52.140;5.428;2023-07-31T01:53:51;5.20;;;2.85;;
72115;SDS011;59991;52.140;5.428;2023-07-31T01:54:23;6.50;;;3.58;;
72115;SDS011;59991;52.140;5.428;2023-07-31T01:54:54;7.78;;;3.22;;
72115;SDS011;59991;52.140;5.428;2023-07-31T01:55:26;10.43;;;4.47;;
72115;SDS011;59991;52.140;5.428;2023-07-31T01:55:57;8.43;;;3.92;;
72115;SDS011;59991;52.140;5.428;2023-07-31T01:56:29;10.85;;;4.30;;
72115;SDS011;59991;52.140;5.428;2023-07-31T01:57:00;16.30;;;4.85;;
72115;SDS011;59991;52.140;5.428;2023-07-31T01:57:32;11.95;;;4.68;;
72115;SDS011;59991;52.140;5.428;2023-07-31T01:58:03;12.45;;;4.80;;
72115;SDS011;59991;52.140;5.428;2023-07-31T01:58:35;13.85;;;4.22;;
72115;SDS011;59991;52.140;5.428;2023-07-31T01:59:07;18.77;;;5.15;;
72115;SDS011;59991;52.140;5.428;2023-07-31T01:59:38;15.73;;;5.35;;
72115;SDS011;59991;52.140;5.428;2023-07-31T02:00:10;14.90;;;5.40;;
72115;SDS011;59991;52.140;5.428;2023-07-31T02:00:42;12.07;;;5.13;;
72115;SDS011;59991;52.140;5.428;2023-07-31T02:01:14;16.52;;;4.90;;
72115;SDS011;59991;52.140;5.428;2023-07-31T02:01:45;19.92;;;6.00;;
72115;SDS011;59991;52.140;5.428;2023-07-31T02:02:17;12.45;;;5.00;;
72115;SDS011;59991;52.140;5.428;2023-07-31T02:02:48;14.88;;;5.68;;
72115;SDS011;59991;52.140;5.428;2023-07-31T02:03:20;19.73;;;5.53;;
72115;SDS011;59991;52.140;5.428;2023-07-31T02:03:52;24.27;;;5.65;;
72115;SDS011;59991;52.140;5.428;2023-07-31T02:04:23;25.25;;;6.38;;
72115;SDS011;59991;52.140;5.428;2023-07-31T02:04:55;20.77;;;7.18;;
72115;SDS011;59991;52.140;5.428;2023-07-31T02:05:26;22.58;;;6.28;;
72115;SDS011;59991;52.140;5.428;2023-07-31T02:05:58;17.77;;;6.70;;
72115;SDS011;59991;52.140;5.428;2023-07-31T02:06:29;25.83;;;6.13;;
72115;SDS011;59991;52.140;5.428;2023-07-31T02:07:01;20.65;;;6.47;;
72115;SDS011;59991;52.140;5.428;2023-07-31T02:07:32;22.90;;;7.68;;
72115;SDS011;59991;52.140;5.428;2023-07-31T02:08:04;25.98;;;6.10;;
72115;SDS011;59991;52.140;5.428;2023-07-31T02:08:37;19.15;;;5.97;;
72115;SDS011;59991;52.140;5.428;2023-07-31T02:09:08;21.30;;;6.35;;
72115;SDS011;59991;52.140;5.428;2023-07-31T02:09:39;20.35;;;6.07;;
72115;SDS011;59991;52.140;5.428;2023-07-31T02:10:11;18.58;;;6.07;;
72115;SDS011;59991;52.140;5.428;2023-07-31T02:10:42;15.00;;;6.03;;
72115;SDS011;59991;52.140;5.428;2023-07-31T02:11:14;16.10;;;5.87;;
72115;SDS011;59991;52.140;5.428;2023-07-31T02:11:46;18.23;;;6.22;;
72115;SDS011;59991;52.140;5.428;2023-07-31T02:12:17;14.15;;;5.95;;
72115;SDS011;59991;52.140;5.428;2023-07-31T02:12:49;12.32;;;6.03;;
72115;SDS011;59991;52.140;5.428;2023-07-31T02:13:20;15.13;;;5.22;;
72115;SDS011;59991;52.140;5.428;2023-07-31T02:13:51;21.10;;;6.35;;
72115;SDS011;59991;52.140;5.428;2023-07-31T02:14:23;15.73;;;5.93;;
72115;SDS011;59991;52.140;5.428;2023-07-31T02:14:55;11.05;;;4.57;;
72115;SDS011;59991;52.140;5.428;2023-07-31T02:15:26;18.98;;;5.18;;
72115;SDS011;59991;52.140;5.428;2023-07-31T02:15:58;15.57;;;5.32;;
72115;SDS011;59991;52.140;5.428;2023-07-31T02:16:30;12.63;;;4.87;;
72115;SDS011;59991;52.140;5.428;2023-07-31T02:17:01;13.82;;;4.78;;
72115;SDS011;59991;52.140;5.428;2023-07-31T02:17:33;14.45;;;5.15;;
72115;SDS011;59991;52.140;5.428;2023-07-31T02:18:04;21.30;;;6.25;;
72115;SDS011;59991;52.140;5.428;2023-07-31T02:18:36;13.95;;;5.45;;
72115;SDS011;59991;52.140;5.428;2023-07-31T02:19:08;13.98;;;5.50;;
72115;SDS011;59991;52.140;5.428;2023-07-31T02:19:39;14.80;;;5.30;;
72115;SDS011;59991;52.140;5.428;2023-07-31T02:20:11;15.98;;;5.50;;
72115;SDS011;59991;52.140;5.428;2023-07-31T02:20:43;15.80;;;5.90;;
72115;SDS011;59991;52.140;5.428;2023-07-31T02:21:17;16.58;;;5.72;;
72115;SDS011;59991;52.140;5.428;2023-07-31T02:21:48;9.13;;;4.70;;
72115;SDS011;59991;52.140;5.428;2023-07-31T02:22:20;11.80;;;5.22;;
72115;SDS011;59991;52.140;5.428;2023-07-31T02:22:51;17.98;;;5.13;;
72115;SDS011;59991;52.140;5.428;2023-07-31T02:23:23;16.67;;;5.85;;
72115;SDS011;59991;52.140;5.428;2023-07-31T02:23:54;13.45;;;6.30;;
72115;SDS011;59991;52.140;5.428;2023-07-31T02:24:26;16.55;;;6.05;;
72115;SDS011;59991;52.140;5.428;2023-07-31T02:24:57;15.00;;;4.85;;
72115;SDS011;59991;52.140;5.428;2023-07-31T02:25:29;19.42;;;5.38;;
72115;SDS011;59991;52.140;5.428;2023-07-31T02:26:00;15.77;;;5.15;;
72115;SDS011;59991;52.140;5.428;2023-07-31T02:26:32;15.25;;;5.55;;
72115;SDS011;59991;52.140;5.428;2023-07-31T02:27:03;18.60;;;5.47;;
72115;SDS011;59991;52.140;5.428;2023-07-31T02:27:35;12.65;;;5.72;;
72115;SDS011;59991;52.140;5.428;2023-07-31T02:28:07;14.20;;;5.65;;
72115;SDS011;59991;52.140;5.428;2023-07-31T02:28:38;13.13;;;5.30;;
72115;SDS011;59991;52.140;5.428;2023-07-31T02:29:10;11.65;;;5.60;;
72115;SDS011;59991;52.140;5.428;2023-07-31T02:29:41;17.40;;;6.10;;
72115;SDS011;59991;52.140;5.428;2023-07-31T02:30:13;16.80;;;5.90;;
72115;SDS011;59991;52.140;5.428;2023-07-31T02:30:45;12.45;;;5.90;;
72115;SDS011;59991;52.140;5.428;2023-07-31T02:31:19;16.00;;;5.50;;
72115;SDS011;59991;52.140;5.428;2023-07-31T02:31:53;13.90;;;5.60;;
72115;SDS011;59991;52.140;5.428;2023-07-31T02:32:25;16.33;;;5.47;;
72115;SDS011;59991;52.140;5.428;2023-07-31T02:32:56;18.50;;;6.40;;
72115;SDS011;59991;52.140;5.428;2023-07-31T02:33:27;13.77;;;6.15;;
72115;SDS011;59991;52.140;5.428;2023-07-31T02:33:59;17.88;;;6.18;;
72115;SDS011;59991;52.140;5.428;2023-07-31T02:35:21;17.23;;;5.78;;
72115;SDS011;59991;52.140;5.428;2023-07-31T02:35:52;16.83;;;4.85;;
72115;SDS011;59991;52.140;5.428;2023-07-31T02:36:23;14.90;;;5.45;;
72115;SDS011;59991;52.140;5.428;2023-07-31T02:36:55;15.52;;;7.05;;
72115;SDS011;59991;52.140;5.428;2023-07-31T02:37:26;20.67;;;6.65;;
72115;SDS011;59991;52.140;5.428;2023-07-31T02:38:00;18.90;;;5.67;;
72115;SDS011;59991;52.140;5.428;2023-07-31T02:38:31;19.33;;;6.45;;
72115;SDS011;59991;52.140;5.428;2023-07-31T02:39:03;17.83;;;5.90;;
72115;SDS011;59991;52.140;5.428;2023-07-31T02:39:34;16.90;;;6.00;;
72115;SDS011;59991;52.140;5.428;2023-07-31T02:40:05;12.95;;;5.22;;
72115;SDS011;59991;52.140;5.428;2023-07-31T02:40:39;18.73;;;5.70;;
72115;SDS011;59991;52.140;5.428;2023-07-31T02:41:11;18.15;;;6.30;;
72115;SDS011;59991;52.140;5.428;2023-07-31T02:41:42;20.17;;;5.70;;
72115;SDS011;59991;52.140;5.428;2023-07-31T02:42:14;16.35;;;5.35;;
72115;SDS011;59991;52.140;5.428;2023-07-31T02:42:46;13.80;;;5.00;;
72115;SDS011;59991;52.140;5.428;2023-07-31T02:43:17;20.87;;;5.27;;
72115;SDS011;59991;52.140;5.428;2023-07-31T02:43:49;15.70;;;5.38;;
72115;SDS011;59991;52.140;5.428;2023-07-31T02:44:20;14.48;;;5.93;;
72115;SDS011;59991;52.140;5.428;2023-07-31T02:44:52;16.15;;;6.20;;
72115;SDS011;59991;52.140;5.428;2023-07-31T02:45:26;15.48;;;4.95;;
72115;SDS011;59991;52.140;5.428;2023-07-31T02:45:59;11.50;;;5.53;;
72115;SDS011;59991;52.140;5.428;2023-07-31T02:46:30;15.18;;;5.57;;
72115;SDS011;59991;52.140;5.428;2023-07-31T02:47:03;13.18;;;5.65;;
72115;SDS011;59991;52.140;5.428;2023-07-31T02:47:34;14.45;;;5.22;;
72115;SDS011;59991;52.140;5.428;2023-07-31T02:48:06;22.85;;;6.20;;
72115;SDS011;59991;52.140;5.428;2023-07-31T02:48:37;15.80;;;5.87;;
72115;SDS011;59991;52.140;5.428;2023-07-31T02:49:09;16.67;;;6.38;;
72115;SDS011;59991;52.140;5.428;2023-07-31T02:49:40;17.90;;;5.85;;
72115;SDS011;59991;52.140;5.428;2023-07-31T02:50:12;18.20;;;6.07;;
72115;SDS011;59991;52.140;5.428;2023-07-31T02:50:44;24.48;;;6.40;;
72115;SDS011;59991;52.140;5.428;2023-07-31T02:51:16;14.60;;;5.13;;
72115;SDS011;59991;52.140;5.428;2023-07-31T02:51:47;18.70;;;5.95;;
72115;SDS011;59991;52.140;5.428;2023-07-31T02:52:18;15.98;;;5.80;;
72115;SDS011;59991;52.140;5.428;2023-07-31T02:52:50;17.77;;;5.78;;
72115;SDS011;59991;52.140;5.428;2023-07-31T02:53:22;16.38;;;4.88;;
72115;SDS011;59991;52.140;5.428;2023-07-31T02:53:54;16.07;;;5.20;;
72115;SDS011;59991;52.140;5.428;2023-07-31T02:54:25;14.35;;;5.38;;
72115;SDS011;59991;52.140;5.428;2023-07-31T02:54:57;18.75;;;6.00;;
72115;SDS011;59991;52.140;5.428;2023-07-31T02:55:29;12.43;;;5.35;;
72115;SDS011;59991;52.140;5.428;2023-07-31T02:56:01;16.48;;;5.68;;
72115;SDS011;59991;52.140;5.428;2023-07-31T02:56:32;17.90;;;5.60;;
72115;SDS011;59991;52.140;5.428;2023-07-31T02:57:04;18.73;;;5.40;;
72115;SDS011;59991;52.140;5.428;2023-07-31T02:57:36;16.88;;;5.60;;
72115;SDS011;59991;52.140;5.428;2023-07-31T02:58:07;17.13;;;5.88;;
72115;SDS011;59991;52.140;5.428;2023-07-31T02:58:39;10.95;;;4.90;;
72115;SDS011;59991;52.140;5.428;2023-07-31T02:59:10;16.63;;;5.17;;
72115;SDS011;59991;52.140;5.428;2023-07-31T02:59:41;11.98;;;5.43;;
72115;SDS011;59991;52.140;5.428;2023-07-31T03:00:13;17.40;;;4.90;;
72115;SDS011;59991;52.140;5.428;2023-07-31T03:00:44;13.30;;;5.53;;
72115;SDS011;59991;52.140;5.428;2023-07-31T03:01:16;16.90;;;5.20;;
72115;SDS011;59991;52.140;5.428;2023-07-31T03:01:48;14.13;;;5.55;;
72115;SDS011;59991;52.140;5.428;2023-07-31T03:02:19;17.58;;;5.90;;
72115;SDS011;59991;52.140;5.428;2023-07-31T03:02:51;18.27;;;5.55;;
72115;SDS011;59991;52.140;5.428;2023-07-31T03:03:23;17.35;;;5.63;;
72115;SDS011;59991;52.140;5.428;2023-07-31T03:03:54;22.80;;;6.32;;
72115;SDS011;59991;52.140;5.428;2023-07-31T03:04:26;16.97;;;5.43;;
72115;SDS011;59991;52.140;5.428;2023-07-31T03:04:57;23.40;;;5.45;;
72115;SDS011;59991;52.140;5.428;2023-07-31T03:05:29;25.80;;;6.20;;
72115;SDS011;59991;52.140;5.428;2023-07-31T03:06:00;11.43;;;5.47;;
72115;SDS011;59991;52.140;5.428;2023-07-31T03:06:31;15.45;;;5.65;;
72115;SDS011;59991;52.140;5.428;2023-07-31T03:07:03;14.80;;;4.88;;
72115;SDS011;59991;52.140;5.428;2023-07-31T03:07:35;15.05;;;5.07;;
72115;SDS011;59991;52.140;5.428;2023-07-31T03:08:06;15.23;;;5.72;;
72115;SDS011;59991;52.140;5.428;2023-07-31T03:08:38;18.73;;;6.25;;
72115;SDS011;59991;52.140;5.428;2023-07-31T03:09:09;15.82;;;5.60;;
72115;SDS011;59991;52.140;5.428;2023-07-31T03:09:41;18.73;;;5.87;;
72115;SDS011;59991;52.140;5.428;2023-07-31T03:10:12;20.38;;;6.10;;
72115;SDS011;59991;52.140;5.428;2023-07-31T03:10:44;19.70;;;5.63;;
72115;SDS011;59991;52.140;5.428;2023-07-31T03:11:15;17.30;;;5.45;;
72115;SDS011;59991;52.140;5.428;2023-07-31T03:11:47;22.10;;;7.07;;
72115;SDS011;59991;52.140;5.428;2023-07-31T03:12:18;19.88;;;5.45;;
72115;SDS011;59991;52.140;5.428;2023-07-31T03:12:50;16.67;;;5.13;;
72115;SDS011;59991;52.140;5.428;2023-07-31T03:13:22;19.75;;;6.57;;
72115;SDS011;59991;52.140;5.428;2023-07-31T03:13:53;17.83;;;6.20;;
72115;SDS011;59991;52.140;5.428;2023-07-31T03:14:25;18.83;;;6.15;;
72115;SDS011;59991;52.140;5.428;2023-07-31T03:14:58;18.83;;;5.43;;
72115;SDS011;59991;52.140;5.428;2023-07-31T03:15:29;16.60;;;5.63;;
72115;SDS011;59991;52.140;5.428;2023-07-31T03:16:00;14.40;;;5.32;;
72115;SDS011;59991;52.140;5.428;2023-07-31T03:16:32;16.52;;;6.00;;
72115;SDS011;59991;52.140;5.428;2023-07-31T03:17:03;17.25;;;6.10;;
72115;SDS011;59991;52.140;5.428;2023-07-31T03:17:35;19.13;;;5.55;;
72115;SDS011;59991;52.140;5.428;2023-07-31T03:18:06;18.52;;;5.88;;
72115;SDS011;59991;52.140;5.428;2023-07-31T03:18:38;17.98;;;6.07;;
72115;SDS011;59991;52.140;5.428;2023-07-31T03:19:09;16.20;;;5.85;;
72115;SDS011;59991;52.140;5.428;2023-07-31T03:19:41;16.52;;;5.85;;